Impacts METAR Board
IDs:

KSTL - St Louis/Lambert Int, MO, US

Updated at: 1300 UTC 25 Jun 2019
Potential Impact None Slight Moderate High
Time 25/01Z 25/02Z 25/03Z 25/04Z 25/05Z 25/06Z 25/07Z 25/08Z 25/09Z 25/10Z 25/11Z 25/12Z 25/13Z
Temp77 74 72 71 70 68 67 66 66 65 66 68 71
Dewpt56 57 58 59 59 59 59 59 59 58 58 59 59
Altim29.83 29.85 29.87 29.89 29.90 29.91 29.91 29.91 29.93 29.94 29.96 29.99 30.01
VIS10 10 10 10 10 10 10 10 10 10 10 10 10
CIG-- -- -- -- -- -- -- -- -- -- -- -- --
CoverFEWFEWCLRCLRCLRCLRCLRCLRCLRFEWFEWSCTFEW
FltCatVFRVFRVFRVFRVFRVFRVFRVFRVFRVFRVFRVFRVFR
WX--------------------------
WDir2702602602502502202402502400200230240
WSpd13 8 6 5 5 5 5 4 3 0 4 6 8
WGst-- -- -- -- -- -- -- -- -- -- -- -- --
Raw hourly METARs
KSTL 250051Z 27013KT 10SM FEW060 FEW250 25/13 A2983 RMK AO2 SLP092 T02500133
KSTL 250151Z 26008KT 10SM FEW250 23/14 A2985 RMK AO2 SLP099 T02330139
KSTL 250251Z 26006KT 10SM CLR 22/14 A2987 RMK AO2 SLP105 T02220144 53019
KSTL 250351Z 25005KT 10SM CLR 22/15 A2989 RMK AO2 SLP112 T02170150
KSTL 250451Z 25005KT 10SM CLR 21/15 A2990 RMK AO2 SLP114 T02110150
KSTL 250551Z 22005KT 10SM CLR 20/15 A2991 RMK AO2 SLP116 T02000150 10261 20200 402890200 51011
KSTL 250651Z 24005KT 10SM CLR 19/15 A2991 RMK AO2 SLP118 T01940150
KSTL 250751Z 25004KT 10SM CLR 19/15 A2991 RMK AO2 SLP119 T01890150
KSTL 250851Z 24003KT 10SM CLR 19/15 A2993 RMK AO2 SLP123 T01890150 53007
KSTL 250951Z 00000KT 10SM FEW250 18/14 A2994 RMK AO2 SLP129 T01830144
KSTL 251051Z 20004KT 10SM FEW250 19/14 A2996 RMK AO2 SLP135 T01890144
KSTL 251151Z 23006KT 10SM SCT250 20/15 A2999 RMK AO2 SLP144 T02000150 10200 20183 53019
KSTL 251251Z 24008KT 10SM FEW250 22/15 A3001 RMK AO2 SLP152 T02170150



Page loaded:  13:34 UTC  |   06:34 AM Pacific  |   07:34 AM Mountain  |   08:34 AM Central  |   09:34 AM Eastern

 

ADVISORIES

FORECASTS

FORECASTS

OBSERVATIONS

USER TOOLS

ABOUT US